Time;durP1;ratioP1;P1;durP2;ratioP2;P2;SDS_P1;SDS_P2;PMS_P1;PMS_P2;Temp;Humidity;BMP_temperature;BMP_pressure;BME280_temperature;BME280_humidity;BME280_pressure;Samples;Min_cycle;Max_cycle;Signal;HPM_P1;HPM_P2
2023/08/02 00:01:53;;;;;;;29.53;12.70;;;16.00;70.20;;;;;;5063082;28;20185;-66
2023/08/02 00:04:21;;;;;;;26.60;12.47;;;16.20;70.10;;;;;;5066967;28;20254;-67
2023/08/02 00:06:48;;;;;;;84.20;18.10;;;16.40;69.40;;;;;;5068847;28;20266;-66
2023/08/02 00:09:15;;;;;;;48.97;17.10;;;16.60;68.90;;;;;;5066246;28;20193;-68
2023/08/02 00:11:42;;;;;;;28.87;13.53;;;16.70;68.30;;;;;;5067077;28;20224;-65
2023/08/02 00:14:10;;;;;;;25.00;16.13;;;16.70;67.40;;;;;;5067916;28;20232;-66
2023/08/02 00:16:37;;;;;;;33.23;15.50;;;16.50;68.20;;;;;;5068574;28;20187;-66
2023/08/02 00:19:04;;;;;;;33.60;17.07;;;16.30;68.50;;;;;;5067645;28;20215;-65
2023/08/02 00:21:32;;;;;;;31.20;17.23;;;16.50;68.10;;;;;;5059065;28;20188;-68
2023/08/02 00:23:59;;;;;;;31.53;17.80;;;16.50;67.40;;;;;;5055663;28;20218;-67
2023/08/02 00:26:27;;;;;;;34.87;17.23;;;16.60;67.90;;;;;;5061109;28;20193;-65
2023/08/02 00:28:55;;;;;;;28.67;15.90;;;16.60;67.80;;;;;;5066077;28;20240;-66
2023/08/02 00:31:22;;;;;;;39.83;16.77;;;16.70;67.60;;;;;;5068222;28;20666;-66
2023/08/02 00:33:49;;;;;;;30.13;14.83;;;16.80;67.30;;;;;;5066298;28;20194;-66
2023/08/02 00:36:17;;;;;;;33.23;15.13;;;16.90;67.10;;;;;;5067221;28;20190;-66
2023/08/02 00:38:44;;;;;;;33.97;14.00;;;17.20;67.40;;;;;;5066499;28;20215;-65
2023/08/02 00:41:11;;;;;;;28.13;12.93;;;17.50;66.20;;;;;;5066376;28;20240;-66
2023/08/02 00:43:44;;;;;;;27.77;12.87;;;17.80;65.40;;;;;;5066599;28;20186;-70
2023/08/02 00:46:14;;;;;;;25.47;11.73;;;18.00;65.00;;;;;;5063313;28;20265;-66
2023/08/02 00:48:43;;;;;;;23.53;9.00;;;18.10;63.70;;;;;;5071241;28;20175;-65
2023/08/02 00:51:17;;;;;;;20.10;8.47;;;17.80;65.00;;;;;;5069066;28;20193;-65
2023/08/02 00:53:48;;;;;;;16.23;7.10;;;17.80;65.80;;;;;;5066200;28;20190;-66
2023/08/02 00:56:16;;;;;;;22.73;7.30;;;17.90;66.00;;;;;;5068911;28;20179;-66
2023/08/02 00:58:43;;;;;;;20.70;8.00;;;17.90;65.40;;;;;;5066101;28;20210;-65
2023/08/02 01:01:11;;;;;;;21.37;6.80;;;17.70;66.10;;;;;;5066767;28;20232;-66
2023/08/02 01:03:44;;;;;;;21.50;7.60;;;17.50;66.90;;;;;;5071703;28;20191;-66
2023/08/02 01:06:35;;;;;;;19.57;9.00;;;17.40;67.70;;;;;;5071257;28;20178;-66
2023/08/02 01:09:12;;;;;;;15.40;6.83;;;17.40;67.50;;;;;;5072660;28;20270;-65
2023/08/02 01:11:48;;;;;;;24.67;7.10;;;17.50;67.90;;;;;;5071699;28;20186;-65
2023/08/02 01:14:22;;;;;;;24.17;8.13;;;17.50;67.30;;;;;;5070349;28;20240;-65
2023/08/02 01:16:51;;;;;;;24.07;7.10;;;17.50;67.80;;;;;;5068638;28;20208;-65
2023/08/02 01:19:22;;;;;;;22.20;6.67;;;17.60;67.80;;;;;;5067530;28;20194;-66
2023/08/02 01:21:50;;;;;;;23.03;6.70;;;17.60;67.10;;;;;;5070532;28;20189;-65
2023/08/02 01:24:18;;;;;;;21.27;7.00;;;17.70;67.30;;;;;;5071494;28;20683;-65
2023/08/02 01:26:48;;;;;;;18.13;7.23;;;17.80;67.00;;;;;;5073005;28;20187;-65
2023/08/02 01:29:20;;;;;;;19.20;6.53;;;17.80;67.00;;;;;;5073064;28;20260;-65
2023/08/02 01:31:49;;;;;;;20.70;6.93;;;17.90;67.40;;;;;;5071461;28;20258;-66
2023/08/02 01:34:17;;;;;;;27.17;7.00;;;17.90;66.30;;;;;;5071991;28;20198;-65
2023/08/02 01:36:44;;;;;;;18.57;6.30;;;18.00;66.90;;;;;;5073572;28;20259;-65
2023/08/02 01:39:14;;;;;;;20.23;6.23;;;18.20;66.30;;;;;;5074036;28;21483;-66
2023/08/02 01:41:41;;;;;;;16.67;6.00;;;18.30;66.50;;;;;;5088187;28;20187;-65
2023/08/02 01:44:08;;;;;;;16.87;5.90;;;18.50;65.90;;;;;;5074587;28;20260;-65
2023/08/02 01:46:36;;;;;;;20.57;6.07;;;18.50;65.30;;;;;;5074225;28;20237;-65
2023/08/02 01:49:03;;;;;;;17.30;6.10;;;18.50;64.90;;;;;;5071586;28;20254;-66
2023/08/02 01:51:30;;;;;;;17.30;6.63;;;18.80;65.40;;;;;;5074369;28;20659;-66
2023/08/02 01:53:58;;;;;;;25.00;6.60;;;18.80;65.40;;;;;;5073648;28;20179;-65
2023/08/02 01:56:25;;;;;;;17.83;6.53;;;18.80;64.70;;;;;;5074820;28;20182;-66
2023/08/02 01:58:52;;;;;;;19.80;5.90;;;18.80;64.80;;;;;;5072894;28;20292;-65
2023/08/02 02:01:20;;;;;;;17.47;5.33;;;18.90;64.80;;;;;;5072609;28;20177;-66
2023/08/02 02:03:47;;;;;;;18.30;5.23;;;18.90;64.70;;;;;;5073748;28;20191;-65
2023/08/02 02:06:14;;;;;;;21.20;5.37;;;18.90;64.90;;;;;;5074473;28;20657;-65
2023/08/02 02:08:42;;;;;;;17.97;5.40;;;19.10;64.50;;;;;;5073840;28;20666;-68
2023/08/02 02:11:09;;;;;;;19.07;5.40;;;19.30;63.50;;;;;;5074070;28;20179;-65
2023/08/02 02:13:36;;;;;;;17.97;5.00;;;19.30;63.00;;;;;;5073285;28;20194;-65
2023/08/02 02:16:04;;;;;;;19.20;5.90;;;19.50;63.50;;;;;;5073486;28;20179;-65
2023/08/02 02:18:31;;;;;;;16.40;5.00;;;19.70;62.50;;;;;;5072555;28;20259;-65
2023/08/02 02:20:58;;;;;;;19.50;5.17;;;19.80;61.70;;;;;;5074044;28;20187;-65
2023/08/02 02:23:26;;;;;;;17.33;4.53;;;19.80;61.90;;;;;;5073471;28;20533;-65
2023/08/02 02:25:53;;;;;;;21.23;5.50;;;19.60;61.90;;;;;;5073697;28;20174;-65
2023/08/02 02:28:20;;;;;;;19.13;4.57;;;19.50;62.00;;;;;;5073267;28;20182;-65
2023/08/02 02:30:48;;;;;;;13.90;5.17;;;19.20;63.70;;;;;;5070926;28;20194;-65
2023/08/02 02:33:16;;;;;;;13.90;4.00;;;19.30;63.20;;;;;;5070316;28;20226;-65
2023/08/02 02:35:43;;;;;;;17.30;4.57;;;19.20;62.90;;;;;;5073026;28;20203;-65
2023/08/02 02:38:10;;;;;;;17.87;4.37;;;19.10;63.70;;;;;;5071978;28;20206;-64
2023/08/02 02:40:38;;;;;;;21.20;4.43;;;19.10;63.50;;;;;;5073595;28;20194;-66
2023/08/02 02:43:05;;;;;;;18.43;3.90;;;19.30;63.50;;;;;;5072972;28;20183;-65
2023/08/02 02:45:32;;;;;;;19.87;3.80;;;19.30;62.90;;;;;;5072772;28;20534;-65
2023/08/02 02:47:59;;;;;;;16.97;4.27;;;19.20;62.90;;;;;;5075757;28;20207;-66
2023/08/02 02:50:28;;;;;;;21.23;5.40;;;19.30;63.00;;;;;;5073448;28;20275;-65
2023/08/02 02:52:55;;;;;;;14.37;4.13;;;19.30;62.80;;;;;;5071474;28;20637;-65
2023/08/02 02:55:23;;;;;;;19.10;4.40;;;19.20;63.20;;;;;;5073483;28;20202;-65
2023/08/02 02:57:50;;;;;;;13.63;3.43;;;19.10;63.30;;;;;;5073018;28;20202;-64
2023/08/02 03:00:18;;;;;;;16.07;3.90;;;19.10;63.60;;;;;;5070847;28;20541;-65
2023/08/02 03:02:45;;;;;;;14.47;3.43;;;19.10;62.90;;;;;;5072417;28;20207;-65
2023/08/02 03:05:13;;;;;;;15.60;3.63;;;19.00;63.10;;;;;;5067759;28;20180;-65
2023/08/02 03:07:40;;;;;;;14.63;3.53;;;19.00;62.60;;;;;;5071706;28;20183;-65
2023/08/02 03:10:08;;;;;;;12.80;3.87;;;19.10;63.10;;;;;;5073484;28;20262;-65
2023/08/02 03:12:35;;;;;;;12.60;3.80;;;19.10;63.10;;;;;;5072528;28;20191;-65
2023/08/02 03:15:02;;;;;;;13.10;4.00;;;19.00;63.80;;;;;;5073038;28;20236;-65
2023/08/02 03:17:30;;;;;;;20.07;4.33;;;19.10;63.50;;;;;;5071886;28;20253;-65
2023/08/02 03:19:57;;;;;;;19.03;3.60;;;19.10;63.70;;;;;;5073833;28;20183;-65
2023/08/02 03:22:24;;;;;;;15.00;4.07;;;19.10;63.50;;;;;;5072737;28;20694;-65
2023/08/02 03:24:52;;;;;;;18.53;4.00;;;19.00;63.70;;;;;;5076416;28;20270;-65
2023/08/02 03:27:19;;;;;;;14.37;3.73;;;19.00;64.30;;;;;;5072380;28;20179;-64
2023/08/02 03:29:46;;;;;;;18.53;4.30;;;19.00;64.80;;;;;;5071927;28;20195;-64
2023/08/02 03:32:13;;;;;;;17.50;4.40;;;18.80;65.70;;;;;;5072924;28;21469;-65
2023/08/02 03:34:41;;;;;;;21.40;4.20;;;18.80;66.30;;;;;;5071412;28;20214;-66
2023/08/02 03:37:08;;;;;;;18.20;4.13;;;18.80;66.00;;;;;;5066033;28;20221;-66
2023/08/02 03:39:35;;;;;;;24.50;3.97;;;18.80;66.50;;;;;;5071755;28;20203;-64
2023/08/02 03:42:03;;;;;;;16.07;3.37;;;18.80;66.50;;;;;;5072837;28;20579;-65
2023/08/02 03:44:30;;;;;;;16.37;3.87;;;18.80;66.30;;;;;;5072009;28;20205;-65
2023/08/02 03:46:57;;;;;;;17.60;3.87;;;18.70;66.40;;;;;;5074151;28;20188;-65
2023/08/02 03:49:25;;;;;;;16.40;3.90;;;18.60;66.50;;;;;;5069335;28;20634;-65
2023/08/02 03:51:52;;;;;;;13.00;3.23;;;18.60;67.50;;;;;;5065558;28;20577;-65
2023/08/02 03:54:19;;;;;;;14.70;3.13;;;18.60;66.40;;;;;;5070423;28;20240;-66
2023/08/02 03:56:47;;;;;;;18.07;3.13;;;18.70;64.60;;;;;;5072662;28;20172;-65
2023/08/02 03:59:14;;;;;;;16.13;3.90;;;18.80;64.70;;;;;;5073766;28;20211;-65
2023/08/02 04:01:41;;;;;;;14.80;3.13;;;18.70;65.80;;;;;;5068918;28;20175;-65
2023/08/02 04:04:09;;;;;;;16.90;3.20;;;18.80;65.90;;;;;;5068384;28;20179;-64
2023/08/02 04:06:36;;;;;;;14.53;2.93;;;18.70;65.80;;;;;;5068809;28;20313;-67
2023/08/02 04:09:04;;;;;;;12.80;3.17;;;18.70;66.00;;;;;;5071225;28;20183;-66
2023/08/02 04:11:31;;;;;;;13.33;3.57;;;18.80;65.60;;;;;;5072336;28;20642;-65
2023/08/02 04:13:59;;;;;;;15.23;3.83;;;19.00;65.50;;;;;;5070638;28;20309;-65
2023/08/02 04:16:26;;;;;;;15.27;3.63;;;19.10;64.90;;;;;;5070340;28;20597;-64
2023/08/02 04:18:53;;;;;;;16.50;3.63;;;19.10;64.30;;;;;;5070453;28;20302;-64
2023/08/02 04:21:21;;;;;;;13.47;3.47;;;19.40;63.80;;;;;;5071330;28;20572;-65
2023/08/02 04:23:50;;;;;;;16.23;3.93;;;19.70;62.30;;;;;;5068195;28;20183;-65
2023/08/02 04:26:18;;;;;;;17.57;3.60;;;19.80;61.70;;;;;;5067722;28;20202;-68
2023/08/02 04:28:49;;;;;;;19.80;3.63;;;19.80;62.30;;;;;;5070196;28;20679;-65
2023/08/02 04:31:16;;;;;;;13.17;3.27;;;19.70;62.50;;;;;;5071375;28;20230;-65
2023/08/02 04:33:43;;;;;;;13.73;2.87;;;19.40;63.00;;;;;;5072578;28;20764;-65
2023/08/02 04:36:11;;;;;;;13.83;3.07;;;19.20;63.90;;;;;;5069926;28;20175;-64
2023/08/02 04:38:38;;;;;;;12.27;2.83;;;19.10;64.70;;;;;;5071011;28;20298;-65
2023/08/02 04:41:05;;;;;;;10.57;3.03;;;19.10;65.50;;;;;;5072720;28;20172;-64
2023/08/02 04:43:33;;;;;;;12.47;3.33;;;19.10;66.20;;;;;;5071991;28;20274;-65
2023/08/02 04:46:00;;;;;;;10.70;3.33;;;19.00;66.30;;;;;;5071929;28;20175;-64
2023/08/02 04:48:27;;;;;;;12.63;3.67;;;18.80;66.50;;;;;;5070095;28;20179;-65
2023/08/02 04:50:54;;;;;;;17.40;3.80;;;18.80;66.60;;;;;;5069932;28;20198;-66
2023/08/02 04:53:22;;;;;;;15.07;2.80;;;18.80;66.10;;;;;;5072214;28;20191;-71
2023/08/02 04:55:49;;;;;;;21.80;3.73;;;18.80;66.70;;;;;;5071685;28;20218;-65
2023/08/02 04:58:16;;;;;;;19.90;3.60;;;18.90;66.10;;;;;;5069899;28;20203;-65
2023/08/02 05:00:44;;;;;;;14.63;3.53;;;18.80;65.90;;;;;;5071080;28;20190;-65
2023/08/02 05:03:11;;;;;;;13.07;3.60;;;18.70;66.40;;;;;;5070745;28;20201;-66
2023/08/02 05:05:38;;;;;;;13.43;3.53;;;18.80;66.50;;;;;;5069111;28;20202;-66
2023/08/02 05:08:06;;;;;;;14.40;3.37;;;18.70;66.50;;;;;;5072144;28;20712;-65
2023/08/02 05:10:33;;;;;;;16.83;2.93;;;18.80;67.00;;;;;;5069488;28;20595;-66
2023/08/02 05:13:04;;;;;;;16.53;3.60;;;18.80;66.80;;;;;;5066283;28;20191;-65
2023/08/02 05:15:36;;;;;;;19.53;3.70;;;18.90;66.50;;;;;;5067548;28;20262;-65
2023/08/02 05:18:04;;;;;;;16.77;3.30;;;18.80;66.50;;;;;;5069511;28;20239;-65
2023/08/02 05:20:33;;;;;;;13.17;3.13;;;18.80;66.40;;;;;;5070887;28;20645;-65
2023/08/02 05:23:00;;;;;;;14.77;3.60;;;18.70;66.80;;;;;;5071342;28;20186;-70
2023/08/02 05:25:31;;;;;;;20.17;3.67;;;18.70;67.10;;;;;;5067756;28;20187;-65
2023/08/02 05:27:59;;;;;;;13.37;2.93;;;18.70;67.40;;;;;;5068698;28;20269;-66
2023/08/02 05:30:29;;;;;;;13.93;3.93;;;18.80;67.00;;;;;;5065641;28;20194;-66
2023/08/02 05:32:56;;;;;;;16.50;3.53;;;18.70;67.10;;;;;;5069007;28;20317;-71
2023/08/02 05:35:25;;;;;;;15.50;3.40;;;18.80;66.70;;;;;;5067202;28;20221;-66
2023/08/02 05:37:53;;;;;;;15.70;3.97;;;18.60;67.40;;;;;;5070543;28;20219;-67
2023/08/02 05:40:21;;;;;;;16.47;4.07;;;18.60;67.60;;;;;;5068945;28;20270;-66
2023/08/02 05:42:49;;;;;;;16.83;3.67;;;18.50;67.90;;;;;;5068440;28;20226;-67
2023/08/02 05:45:16;;;;;;;16.50;3.40;;;18.40;68.20;;;;;;5063551;28;20252;-66
2023/08/02 05:47:44;;;;;;;13.93;3.10;;;18.40;68.70;;;;;;5067798;28;20286;-66
2023/08/02 05:50:11;;;;;;;19.93;3.43;;;18.30;68.40;;;;;;5073044;28;20266;-65
2023/08/02 05:52:38;;;;;;;23.50;3.77;;;18.30;68.50;;;;;;5071103;28;20270;-65
2023/08/02 05:55:06;;;;;;;16.90;4.27;;;18.30;68.60;;;;;;5072882;28;20490;-67
2023/08/02 05:57:33;;;;;;;21.40;4.23;;;18.30;68.90;;;;;;5073514;28;20203;-65
2023/08/02 06:00:01;;;;;;;15.60;3.63;;;18.20;68.70;;;;;;5075493;28;20262;-65
2023/08/02 06:02:28;;;;;;;19.37;4.03;;;18.10;68.90;;;;;;5078600;28;20186;-66
2023/08/02 06:04:55;;;;;;;17.77;4.33;;;18.10;69.00;;;;;;5077224;28;20171;-64
2023/08/02 06:07:22;;;;;;;13.90;3.57;;;18.00;69.30;;;;;;5074808;28;20179;-64
2023/08/02 06:09:50;;;;;;;19.67;3.50;;;18.00;69.50;;;;;;5072136;28;20179;-65
2023/08/02 06:12:17;;;;;;;12.50;3.27;;;17.90;69.50;;;;;;5074500;28;20175;-64
2023/08/02 06:14:44;;;;;;;18.00;4.00;;;17.90;69.70;;;;;;5073087;28;20183;-65
2023/08/02 06:17:12;;;;;;;15.77;3.90;;;17.90;69.80;;;;;;5073882;28;20244;-64
2023/08/02 06:19:39;;;;;;;14.20;3.73;;;17.90;69.70;;;;;;5073368;28;20190;-64
2023/08/02 06:22:06;;;;;;;18.80;3.77;;;17.90;69.80;;;;;;5065888;28;20202;-64
2023/08/02 06:24:34;;;;;;;19.13;3.40;;;17.90;69.50;;;;;;5072313;28;20248;-63
2023/08/02 06:27:01;;;;;;;15.67;3.67;;;17.90;70.10;;;;;;5073849;28;20228;-64
2023/08/02 06:29:28;;;;;;;17.43;3.07;;;17.90;70.10;;;;;;5072074;28;20261;-64
2023/08/02 06:31:56;;;;;;;13.00;3.07;;;18.00;69.70;;;;;;5071682;28;20227;-64
2023/08/02 06:34:23;;;;;;;19.30;4.03;;;18.00;69.90;;;;;;5072968;28;20624;-64
2023/08/02 06:36:50;;;;;;;15.03;2.97;;;18.00;69.70;;;;;;5073011;28;20194;-64
2023/08/02 06:39:18;;;;;;;14.50;3.77;;;18.00;69.90;;;;;;5069647;28;20265;-64
2023/08/02 06:41:45;;;;;;;16.60;3.40;;;18.00;70.10;;;;;;5067907;28;20198;-64
2023/08/02 06:44:14;;;;;;;21.43;3.70;;;18.00;70.10;;;;;;5071571;28;20226;-65
2023/08/02 06:46:44;;;;;;;15.57;3.67;;;17.90;69.70;;;;;;5072463;28;20172;-64
2023/08/02 06:49:11;;;;;;;16.83;3.30;;;17.80;70.10;;;;;;5071555;28;20221;-64
2023/08/02 06:51:39;;;;;;;16.57;3.30;;;17.70;70.60;;;;;;5070076;28;20209;-63
2023/08/02 06:54:06;;;;;;;16.53;3.53;;;17.60;71.20;;;;;;5070494;28;20191;-63
2023/08/02 06:56:33;;;;;;;15.40;4.10;;;17.50;71.70;;;;;;5071517;28;20183;-64
2023/08/02 06:59:01;;;;;;;23.03;4.40;;;17.30;72.40;;;;;;5067141;28;20314;-65
2023/08/02 07:01:28;;;;;;;12.87;3.27;;;17.30;72.90;;;;;;5068876;28;20664;-64
2023/08/02 07:03:55;;;;;;;23.87;4.57;;;17.20;73.50;;;;;;5072127;28;20194;-65
2023/08/02 07:06:23;;;;;;;18.77;3.40;;;17.10;73.80;;;;;;5072787;28;20179;-67
2023/08/02 07:08:50;;;;;;;21.27;4.07;;;17.00;74.30;;;;;;5068509;28;20657;-65
2023/08/02 07:11:18;;;;;;;13.57;3.43;;;16.90;74.70;;;;;;5070241;28;20618;-64
2023/08/02 07:13:46;;;;;;;19.20;3.57;;;16.80;75.10;;;;;;5071006;28;20195;-64
2023/08/02 07:16:13;;;;;;;15.57;4.07;;;16.70;75.50;;;;;;5068476;28;20259;-64
2023/08/02 07:18:41;;;;;;;14.93;3.30;;;16.60;75.70;;;;;;5072260;28;20718;-64
2023/08/02 07:21:09;;;;;;;18.13;3.93;;;16.60;75.90;;;;;;5071665;28;20649;-64
2023/08/02 07:23:37;;;;;;;10.97;3.00;;;16.60;76.10;;;;;;5070992;28;20194;-64
2023/08/02 07:26:05;;;;;;;16.77;3.87;;;16.50;76.10;;;;;;5069705;28;20190;-65
2023/08/02 07:28:33;;;;;;;17.33;4.13;;;16.40;76.30;;;;;;5071258;28;20558;-65
2023/08/02 07:31:12;;;;;;;15.30;3.17;;;16.40;76.80;;;;;;5071170;28;20224;-64
2023/08/02 07:33:40;;;;;;;19.97;3.87;;;16.40;76.80;;;;;;5073479;28;20226;-65
2023/08/02 07:36:15;;;;;;;19.47;3.73;;;16.30;77.00;;;;;;5073840;28;20640;-65
2023/08/02 07:38:43;;;;;;;19.23;4.40;;;16.30;76.90;;;;;;5072148;28;20738;-64
2023/08/02 07:41:10;;;;;;;20.07;4.47;;;16.30;76.90;;;;;;5073686;28;20197;-64
2023/08/02 07:43:37;;;;;;;19.27;3.77;;;16.30;77.20;;;;;;5066983;28;20179;-64
2023/08/02 07:46:06;;;;;;;16.97;3.60;;;16.30;77.30;;;;;;5072120;28;20194;-64
2023/08/02 07:48:33;;;;;;;17.47;3.70;;;16.20;77.50;;;;;;5071405;28;20231;-64
2023/08/02 07:51:05;;;;;;;17.97;4.17;;;16.20;77.60;;;;;;5072066;28;20208;-66
2023/08/02 07:53:32;;;;;;;18.07;3.80;;;16.20;77.90;;;;;;5072170;28;20191;-65
2023/08/02 07:56:03;;;;;;;18.90;4.07;;;16.20;77.80;;;;;;5071923;28;20208;-64
2023/08/02 07:58:31;;;;;;;19.60;3.97;;;16.20;77.90;;;;;;5071664;28;20257;-66
2023/08/02 08:01:04;;;;;;;17.70;3.60;;;16.10;78.20;;;;;;5068127;28;20552;-65
2023/08/02 08:03:31;;;;;;;13.80;3.10;;;16.10;78.40;;;;;;5068315;28;20183;-64
2023/08/02 08:05:59;;;;;;;14.33;2.97;;;16.00;78.80;;;;;;5070509;28;20183;-63
2023/08/02 08:08:26;;;;;;;17.40;3.70;;;16.00;78.60;;;;;;5068849;28;20182;-65
2023/08/02 08:10:54;;;;;;;22.13;4.43;;;16.00;78.50;;;;;;5065850;28;20206;-65
2023/08/02 08:13:21;;;;;;;20.43;4.03;;;16.00;78.60;;;;;;5070116;28;20650;-64
2023/08/02 08:15:49;;;;;;;17.67;3.93;;;15.90;79.10;;;;;;5070527;28;20259;-63
2023/08/02 08:18:16;;;;;;;24.70;4.30;;;15.90;79.40;;;;;;5070366;28;20224;-64
2023/08/02 08:20:43;;;;;;;27.30;5.37;;;15.90;80.00;;;;;;5069014;28;20177;-64
2023/08/02 08:23:11;;;;;;;24.60;4.10;;;15.90;80.00;;;;;;5065509;28;20186;-64
2023/08/02 08:25:38;;;;;;;28.30;4.93;;;15.90;80.40;;;;;;5069657;28;20189;-65
2023/08/02 08:28:06;;;;;;;23.23;4.23;;;15.80;80.30;;;;;;5070438;28;20244;-70
2023/08/02 08:30:33;;;;;;;23.40;5.90;;;15.80;80.20;;;;;;5071014;28;20237;-66
2023/08/02 08:33:01;;;;;;;25.97;5.07;;;15.80;80.30;;;;;;5067064;28;20234;-64
2023/08/02 08:35:28;;;;;;;24.97;4.67;;;15.70;80.20;;;;;;5071717;28;20201;-64
2023/08/02 08:37:55;;;;;;;24.70;4.93;;;15.70;80.10;;;;;;5070527;28;20307;-64
2023/08/02 08:40:23;;;;;;;16.07;3.80;;;15.60;80.10;;;;;;5071716;28;20262;-66
2023/08/02 08:42:55;;;;;;;22.17;4.57;;;15.60;79.90;;;;;;5068358;28;20258;-64
2023/08/02 08:45:26;;;;;;;28.00;4.93;;;15.60;79.80;;;;;;5071411;28;20209;-64
2023/08/02 08:47:53;;;;;;;28.07;5.60;;;15.50;79.80;;;;;;5066058;28;20195;-65
2023/08/02 08:50:22;;;;;;;22.73;4.60;;;15.50;79.90;;;;;;5071653;28;20185;-64
2023/08/02 08:52:51;;;;;;;21.97;4.37;;;15.50;79.80;;;;;;5069633;28;20726;-66
2023/08/02 08:55:19;;;;;;;18.57;4.90;;;15.50;79.70;;;;;;5071665;28;20305;-65
2023/08/02 08:57:49;;;;;;;19.13;4.93;;;15.40;79.60;;;;;;5068901;28;20711;-67
2023/08/02 09:00:17;;;;;;;19.73;4.97;;;15.30;79.70;;;;;;5067194;28;20225;-65
2023/08/02 09:02:46;;;;;;;21.90;5.07;;;15.30;80.00;;;;;;5066147;28;20297;-64
2023/08/02 09:05:15;;;;;;;20.20;4.97;;;15.30;80.10;;;;;;5072156;28;20201;-66
2023/08/02 09:07:42;;;;;;;22.63;5.57;;;15.30;80.30;;;;;;5071713;28;20195;-64
2023/08/02 09:10:10;;;;;;;22.30;4.57;;;15.20;80.30;;;;;;5071366;28;20175;-65
2023/08/02 09:12:47;;;;;;;20.83;5.50;;;15.20;80.50;;;;;;5068597;28;20337;-66
2023/08/02 09:15:15;;;;;;;24.77;5.23;;;15.20;80.60;;;;;;5068745;28;20191;-65
2023/08/02 09:17:53;;;;;;;24.57;4.70;;;15.10;80.60;;;;;;5069157;28;20221;-65
2023/08/02 09:20:25;;;;;;;15.57;4.60;;;15.20;80.60;;;;;;5069014;28;20229;-64
2023/08/02 09:22:53;;;;;;;19.40;4.70;;;15.20;80.10;;;;;;5071899;28;20293;-64
2023/08/02 09:25:28;;;;;;;22.27;5.70;;;15.20;80.10;;;;;;5075614;28;20194;-68
2023/08/02 09:28:00;;;;;;;21.30;5.13;;;15.10;80.00;;;;;;5069768;28;20601;-67
2023/08/02 09:30:32;;;;;;;16.83;3.97;;;15.10;80.50;;;;;;5074075;28;20183;-65
2023/08/02 09:33:04;;;;;;;19.10;4.67;;;15.00;80.70;;;;;;5073610;28;20238;-65
2023/08/02 09:35:51;;;;;;;16.53;4.50;;;14.90;80.80;;;;;;5072723;28;20174;-63
2023/08/02 09:38:19;;;;;;;26.90;5.17;;;14.80;81.10;;;;;;5074128;28;20587;-64
2023/08/02 09:40:48;;;;;;;20.90;4.13;;;14.80;81.30;;;;;;5074729;28;20200;-64
2023/08/02 09:43:16;;;;;;;22.00;4.47;;;14.80;81.30;;;;;;5073568;28;20179;-64
2023/08/02 09:45:44;;;;;;;18.43;4.90;;;14.80;81.70;;;;;;5072842;28;20274;-67
2023/08/02 09:48:12;;;;;;;21.53;4.10;;;14.80;81.60;;;;;;5070859;28;20218;-64
2023/08/02 09:51:03;;;;;;;18.13;5.47;;;14.80;81.50;;;;;;5071610;28;20184;-67
2023/08/02 09:53:30;;;;;;;18.87;4.40;;;14.70;81.60;;;;;;5074895;28;20690;-68
2023/08/02 09:56:00;;;;;;;18.90;4.33;;;14.70;81.80;;;;;;5069880;28;20221;-65
2023/08/02 09:58:30;;;;;;;18.87;4.33;;;14.60;81.50;;;;;;5073719;28;20218;-65
2023/08/02 10:01:00;;;;;;;17.70;4.70;;;14.50;81.70;;;;;;5068111;28;20276;-64
2023/08/02 10:03:28;;;;;;;17.90;4.73;;;14.50;81.80;;;;;;5073549;28;20191;-64
2023/08/02 10:06:03;;;;;;;19.10;5.43;;;14.40;82.20;;;;;;5072311;28;20190;-64
2023/08/02 10:08:32;;;;;;;26.07;6.43;;;14.40;81.90;;;;;;5074298;28;20189;-64
2023/08/02 10:11:00;;;;;;;23.33;7.10;;;14.30;82.10;;;;;;5074951;28;20278;-64
2023/08/02 10:13:32;;;;;;;28.83;6.93;;;14.30;82.60;;;;;;5071259;28;20675;-64
2023/08/02 10:16:00;;;;;;;25.83;8.77;;;14.20;82.60;;;;;;5074338;28;20207;-64
2023/08/02 10:18:29;;;;;;;21.77;7.40;;;14.20;82.80;;;;;;5073634;28;20247;-65
2023/08/02 10:20:57;;;;;;;23.67;7.20;;;14.10;82.90;;;;;;5069289;28;20544;-64
2023/08/02 10:23:26;;;;;;;25.00;7.67;;;14.00;83.20;;;;;;5071547;28;21661;-68
2023/08/02 10:25:55;;;;;;;19.73;6.77;;;14.00;83.50;;;;;;5072302;28;20244;-67
2023/08/02 10:28:22;;;;;;;24.67;7.23;;;14.00;83.40;;;;;;5072735;28;20188;-64
2023/08/02 10:30:50;;;;;;;28.83;6.60;;;14.00;83.70;;;;;;5073564;28;20192;-63
2023/08/02 10:33:22;;;;;;;23.73;6.53;;;14.00;83.80;;;;;;5073267;28;20226;-64
2023/08/02 10:35:58;;;;;;;18.87;7.00;;;13.90;83.80;;;;;;5073517;28;20186;-64
2023/08/02 10:38:43;;;;;;;27.10;7.07;;;14.00;83.90;;;;;;5072262;28;20252;-64
2023/08/02 10:41:15;;;;;;;18.70;6.67;;;14.00;84.20;;;;;;5067839;28;20279;-64
2023/08/02 10:43:54;;;;;;;23.23;5.63;;;14.00;84.20;;;;;;5071404;28;20191;-64
2023/08/02 10:46:22;;;;;;;19.23;5.13;;;14.20;84.40;;;;;;5073779;28;20626;-65
2023/08/02 10:48:50;;;;;;;15.80;5.00;;;14.20;83.90;;;;;;5073286;28;20194;-64
2023/08/02 10:51:37;;;;;;;23.10;5.80;;;14.20;83.60;;;;;;5072922;28;20186;-66
2023/08/02 10:54:23;;;;;;;19.67;5.57;;;14.00;83.60;;;;;;5071816;28;20652;-65
2023/08/02 10:56:56;;;;;;;20.47;5.93;;;14.00;83.40;;;;;;5073228;28;20222;-64
2023/08/02 10:59:23;;;;;;;18.83;5.50;;;13.90;83.60;;;;;;5070984;28;20305;-64
2023/08/02 11:02:02;;;;;;;22.87;5.97;;;13.90;83.80;;;;;;5073232;28;20179;-65
2023/08/02 11:04:30;;;;;;;17.57;5.73;;;13.90;84.10;;;;;;5072806;28;20190;-65
2023/08/02 11:07:19;;;;;;;22.13;5.27;;;13.80;84.00;;;;;;5071561;28;20179;-65
2023/08/02 11:09:47;;;;;;;16.57;4.83;;;13.80;84.60;;;;;;5070391;28;20215;-66
2023/08/02 11:12:20;;;;;;;23.83;5.80;;;13.80;84.50;;;;;;5072504;28;20645;-64
2023/08/02 11:14:51;;;;;;;18.70;4.93;;;13.80;84.50;;;;;;5069850;28;20661;-69
2023/08/02 11:17:21;;;;;;;21.37;5.80;;;13.80;84.70;;;;;;5068977;28;20223;-65
2023/08/02 11:19:50;;;;;;;21.13;5.30;;;13.70;84.60;;;;;;5071895;28;20187;-65
2023/08/02 11:22:19;;;;;;;17.30;5.70;;;13.70;85.00;;;;;;5071812;28;20192;-64
2023/08/02 11:24:53;;;;;;;19.07;6.60;;;13.70;84.80;;;;;;5068049;28;20222;-66
2023/08/02 11:27:26;;;;;;;24.00;7.73;;;13.60;84.90;;;;;;5071486;28;20269;-64
2023/08/02 11:30:07;;;;;;;19.60;6.50;;;13.60;85.00;;;;;;5071566;28;20596;-64
2023/08/02 11:32:43;;;;;;;17.87;6.20;;;13.60;85.30;;;;;;5072332;28;20306;-64
2023/08/02 11:35:16;;;;;;;22.37;6.50;;;13.60;85.40;;;;;;5072729;28;20392;-64
2023/08/02 11:37:44;;;;;;;22.07;7.00;;;13.50;85.50;;;;;;5072652;28;20245;-64
2023/08/02 11:40:12;;;;;;;16.73;6.60;;;13.50;85.80;;;;;;5069407;28;21553;-65
2023/08/02 11:42:50;;;;;;;19.97;7.20;;;13.60;85.70;;;;;;5070596;28;20204;-64
2023/08/02 11:45:37;;;;;;;26.00;6.33;;;13.50;85.80;;;;;;5070395;28;20190;-64
2023/08/02 11:48:05;;;;;;;22.03;6.40;;;13.50;85.80;;;;;;5071869;28;20270;-64
2023/08/02 11:50:33;;;;;;;22.80;5.97;;;13.50;86.00;;;;;;5072073;28;20210;-65
2023/08/02 11:53:08;;;;;;;25.00;6.83;;;13.40;85.90;;;;;;5071733;28;20186;-64
2023/08/02 11:55:36;;;;;;;16.57;6.03;;;13.40;86.00;;;;;;5069059;28;20328;-66
2023/08/02 11:58:07;;;;;;;19.50;7.17;;;13.30;86.00;;;;;;5071419;28;20199;-64
2023/08/02 12:00:36;;;;;;;14.90;6.00;;;13.30;86.10;;;;;;5071638;28;20193;-67
2023/08/02 12:03:11;;;;;;;30.97;6.77;;;13.20;86.30;;;;;;5070697;28;20262;-65
2023/08/02 12:05:39;;;;;;;19.67;6.23;;;13.20;86.40;;;;;;5071481;28;20190;-64
2023/08/02 12:08:17;;;;;;;26.73;6.00;;;13.20;86.50;;;;;;5071329;28;20274;-66
2023/08/02 12:10:46;;;;;;;19.13;5.73;;;13.20;86.80;;;;;;5069405;28;20275;-65
2023/08/02 12:13:16;;;;;;;21.30;6.60;;;13.20;86.90;;;;;;5068756;28;20635;-64
2023/08/02 12:16:06;;;;;;;24.10;6.10;;;13.20;86.70;;;;;;5070422;28;20211;-71
2023/08/02 12:18:48;;;;;;;22.40;6.03;;;13.10;86.70;;;;;;5070449;28;20241;-65
2023/08/02 12:21:16;;;;;;;23.13;7.00;;;13.10;86.80;;;;;;5069520;28;20175;-67
2023/08/02 12:23:44;;;;;;;26.20;7.60;;;13.10;87.30;;;;;;5072629;28;20191;-64
2023/08/02 12:26:11;;;;;;;27.57;7.97;;;13.20;87.20;;;;;;5069797;28;20594;-66
2023/08/02 12:28:49;;;;;;;24.40;8.30;;;13.10;87.10;;;;;;5069344;28;20230;-66
2023/08/02 12:31:18;;;;;;;21.67;7.87;;;13.20;87.20;;;;;;5086889;28;20223;-65
2023/08/02 12:33:45;;;;;;;23.93;7.90;;;13.20;87.30;;;;;;5072168;28;20546;-65
2023/08/02 12:36:23;;;;;;;25.43;8.03;;;13.20;87.20;;;;;;5076404;28;20270;-65
2023/08/02 12:38:50;;;;;;;26.53;7.37;;;13.20;87.30;;;;;;5070800;28;20654;-64
2023/08/02 12:41:18;;;;;;;25.43;8.27;;;13.10;87.30;;;;;;5070987;28;20183;-66
2023/08/02 12:43:45;;;;;;;26.07;8.20;;;13.20;87.50;;;;;;5070518;28;20194;-65
2023/08/02 12:46:13;;;;;;;23.23;9.00;;;13.20;87.30;;;;;;5071278;28;20315;-64